Time;durP1;ratioP1;P1;durP2;ratioP2;P2;SDS_P1;SDS_P2;PMS_P1;PMS_P2;Temp;Humidity;BMP_temperature;BMP_pressure;BME280_temperature;BME280_humidity;BME280_pressure;Samples;Min_cycle;Max_cycle;Signal;HPM_P1;HPM_P2
2021/10/06 00:01:39;;;;;;;;;;;;;;;18.64;45.54;97979.45;1632872;87;24739;-88
2021/10/06 00:04:05;;;;;;;;;;;;;;;18.59;45.57;97976.48;1629141;88;20882;-86
2021/10/06 00:06:31;;;;;;;;;;;;;;;18.57;45.62;97977.62;1628676;88;20986;-86
2021/10/06 00:08:57;;;;;;;;;;;;;;;18.56;45.66;97970.17;1626781;88;24368;-86
2021/10/06 00:11:23;;;;;;;;;;;;;;;18.58;45.65;97971.34;1629159;88;20311;-86
2021/10/06 00:13:50;;;;;;;;;;;;;;;18.55;45.65;97973.81;1628985;88;24794;-83
2021/10/06 00:16:16;;;;;;;;;;;;;;;18.60;45.66;97973.33;1627911;88;22074;-86
2021/10/06 00:18:43;;;;;;;;;;;;;;;18.60;45.62;97979.95;1628845;88;25972;-86
2021/10/06 00:21:08;;;;;;;;;;;;;;;18.60;45.61;97968.83;1628154;88;24475;-88
2021/10/06 00:23:34;;;;;;;;;;;;;;;18.59;45.62;97970.34;1628656;88;20810;-88
2021/10/06 00:26:01;;;;;;;;;;;;;;;18.53;45.62;97972.31;1629122;87;20286;-83
2021/10/06 00:28:28;;;;;;;;;;;;;;;18.51;45.58;97963.69;1628896;88;22142;-83
2021/10/06 00:31:00;;;;;;;;;;;;;;;18.52;45.59;97957.40;1628669;88;27005;-88
2021/10/06 00:33:26;;;;;;;;;;;;;;;18.54;45.54;97962.05;1628187;88;24511;-83
2021/10/06 00:35:53;;;;;;;;;;;;;;;18.52;45.53;97964.86;1628849;86;20526;-86
2021/10/06 00:38:19;;;;;;;;;;;;;;;18.53;45.49;97965.69;1629552;88;24792;-83
2021/10/06 00:40:45;;;;;;;;;;;;;;;18.53;45.48;97973.64;1628915;86;22214;-83
2021/10/06 00:43:17;;;;;;;;;;;;;;;18.56;45.45;97988.72;1630895;87;26253;-86
2021/10/06 00:45:43;;;;;;;;;;;;;;;18.55;45.47;98003.45;1629681;87;25127;-86
2021/10/06 00:48:10;;;;;;;;;;;;;;;18.54;45.44;97993.84;1630495;87;20204;-88
2021/10/06 00:50:36;;;;;;;;;;;;;;;18.55;45.42;97990.20;1630095;87;24831;-88
2021/10/06 00:53:04;;;;;;;;;;;;;;;18.54;45.41;97976.62;1630707;87;22154;-88
2021/10/06 00:55:30;;;;;;;;;;;;;;;18.53;45.46;97978.94;1630991;86;26184;-84
2021/10/06 00:57:56;;;;;;;;;;;;;;;18.52;45.46;97982.08;1631028;87;24437;-88
2021/10/06 01:00:22;;;;;;;;;;;;;;;18.50;45.44;97974.78;1631091;87;20597;-86
2021/10/06 01:02:48;;;;;;;;;;;;;;;18.47;45.44;97988.38;1629913;87;20743;-86
2021/10/06 01:05:14;;;;;;;;;;;;;;;18.46;45.46;97975.30;1630451;87;20314;-83
2021/10/06 01:07:40;;;;;;;;;;;;;;;18.43;45.50;97975.15;1630276;87;21103;-86
2021/10/06 01:10:08;;;;;;;;;;;;;;;18.44;45.52;97983.40;1629649;87;20299;-88
2021/10/06 01:12:34;;;;;;;;;;;;;;;18.40;45.55;97972.32;1630470;86;20237;-84
2021/10/06 01:15:01;;;;;;;;;;;;;;;18.38;45.57;97972.17;1630162;87;24986;-83
2021/10/06 01:17:27;;;;;;;;;;;;;;;18.34;45.60;97974.80;1663271;84;22067;-83
2021/10/06 01:19:53;;;;;;;;;;;;;;;18.35;45.64;97979.11;1629561;87;25977;-83
2021/10/06 01:22:18;;;;;;;;;;;;;;;18.32;45.68;97982.94;1630305;87;20263;-86
2021/10/06 01:24:44;;;;;;;;;;;;;;;18.31;45.71;98001.64;1630591;87;20358;-86
2021/10/06 01:27:14;;;;;;;;;;;;;;;18.33;45.76;98002.28;1630416;87;20239;-84
2021/10/06 01:29:38;;;;;;;;;;;;;;;18.33;45.82;98011.56;1630823;86;21983;-83
2021/10/06 01:32:15;;;;;;;;;;;;;;;18.37;45.81;98016.39;1630769;87;20888;-82
2021/10/06 01:34:41;;;;;;;;;;;;;;;18.39;45.85;98014.88;1631589;87;24759;-88
2021/10/06 01:37:07;;;;;;;;;;;;;;;18.37;45.86;98014.23;1630182;87;20511;-84
2021/10/06 01:39:34;;;;;;;;;;;;;;;18.38;45.87;98019.87;1631180;87;20247;-83
2021/10/06 01:42:00;;;;;;;;;;;;;;;18.38;45.94;98028.61;1612416;87;22068;-88
2021/10/06 01:44:26;;;;;;;;;;;;;;;18.39;45.96;98025.47;1629966;87;26234;-83
2021/10/06 01:46:52;;;;;;;;;;;;;;;18.38;45.95;98015.89;1630686;87;20251;-83
2021/10/06 01:49:18;;;;;;;;;;;;;;;18.35;45.96;98009.58;1629812;86;20294;-88
2021/10/06 01:51:45;;;;;;;;;;;;;;;18.33;45.98;98016.86;1628265;86;25545;-86
2021/10/06 01:54:11;;;;;;;;;;;;;;;18.33;46.00;98011.56;1630341;86;22175;-84
2021/10/06 01:56:37;;;;;;;;;;;;;;;18.34;46.01;98020.67;1629891;86;26243;-83
2021/10/06 01:59:06;;;;;;;;;;;;;;;18.35;46.07;98014.88;1664259;84;24544;-83
2021/10/06 02:01:32;;;;;;;;;;;;;;;18.33;46.10;98021.66;1612426;87;20262;-86
2021/10/06 02:03:58;;;;;;;;;;;;;;;18.31;46.09;98013.07;1631108;86;20263;-86
2021/10/06 02:06:24;;;;;;;;;;;;;;;18.30;46.12;98015.88;1630204;86;20248;-83
2021/10/06 02:08:50;;;;;;;;;;;;;;;18.23;46.18;98018.36;1630186;86;21821;-88
2021/10/06 02:11:16;;;;;;;;;;;;;;;18.22;46.22;98023.31;1613286;87;20342;-88
2021/10/06 02:13:43;;;;;;;;;;;;;;;18.26;46.26;98026.48;1630294;86;20255;-84
2021/10/06 02:16:09;;;;;;;;;;;;;;;18.23;46.31;98024.97;1630281;86;24863;-83
2021/10/06 02:18:35;;;;;;;;;;;;;;;18.21;46.38;98017.71;1630689;86;20850;-86
2021/10/06 02:21:01;;;;;;;;;;;;;;;18.22;46.45;98021.99;1630812;86;26044;-84
2021/10/06 02:23:27;;;;;;;;;;;;;;;18.23;46.52;98020.17;1630711;86;25380;-87
2021/10/06 02:25:53;;;;;;;;;;;;;;;18.24;46.60;98021.34;1630961;86;20241;-84
2021/10/06 02:28:20;;;;;;;;;;;;;;;18.23;46.68;98026.80;1630208;86;24768;-83
2021/10/06 02:30:46;;;;;;;;;;;;;;;18.24;46.75;98016.04;1630406;86;22018;-83
2021/10/06 02:33:12;;;;;;;;;;;;;;;18.29;46.86;98014.22;1631180;86;27017;-83
2021/10/06 02:35:38;;;;;;;;;;;;;;;18.29;46.94;98014.22;1630422;86;24407;-83
2021/10/06 02:38:04;;;;;;;;;;;;;;;18.29;47.04;98004.95;1630556;86;20275;-84
2021/10/06 02:40:30;;;;;;;;;;;;;;;18.30;47.15;98015.88;1629473;86;24751;-83
2021/10/06 02:42:56;;;;;;;;;;;;;;;18.29;47.24;98011.08;1628727;86;22107;-83
2021/10/06 02:45:22;;;;;;;;;;;;;;;18.30;47.37;98016.71;1628262;86;20996;-83
2021/10/06 02:47:48;;;;;;;;;;;;;;;18.29;47.48;98000.48;1628489;86;24589;-83
2021/10/06 02:50:16;;;;;;;;;;;;;;;18.28;47.64;98021.33;1628867;86;20265;-87
2021/10/06 02:52:41;;;;;;;;;;;;;;;18.28;47.75;98026.63;1629091;86;24897;-84
2021/10/06 02:55:10;;;;;;;;;;;;;;;18.30;47.92;98033.09;1628175;86;22090;-84
2021/10/06 02:57:37;;;;;;;;;;;;;;;18.32;48.02;98028.47;1629376;86;25997;-83
2021/10/06 03:00:05;;;;;;;;;;;;;;;18.26;48.11;98023.83;1628971;86;24506;-83
2021/10/06 03:02:31;;;;;;;;;;;;;;;18.24;48.21;98021.34;1628597;86;20260;-88
2021/10/06 03:04:57;;;;;;;;;;;;;;;18.24;48.30;98036.41;1629153;86;20740;-88
2021/10/06 03:07:22;;;;;;;;;;;;;;;18.21;48.40;98032.77;1660272;85;20319;-84
2021/10/06 03:09:49;;;;;;;;;;;;;;;18.19;48.47;98030.77;1629582;86;26039;-86
2021/10/06 03:12:15;;;;;;;;;;;;;;;18.20;48.61;98035.09;1628955;86;20239;-83
2021/10/06 03:14:41;;;;;;;;;;;;;;;18.18;48.69;98032.59;1628629;86;20335;-83
2021/10/06 03:17:07;;;;;;;;;;;;;;;18.10;48.86;98035.74;1629121;86;24880;-83
2021/10/06 03:19:33;;;;;;;;;;;;;;;18.02;49.00;98043.17;1628763;86;20228;-83
2021/10/06 03:21:59;;;;;;;;;;;;;;;18.00;49.18;98049.64;1629570;86;21069;-86
2021/10/06 03:24:25;;;;;;;;;;;;;;;17.97;49.29;98050.28;1628890;86;20921;-83
2021/10/06 03:26:53;;;;;;;;;;;;;;;17.98;49.45;98057.73;1628903;86;20343;-83
2021/10/06 03:29:18;;;;;;;;;;;;;;;17.96;49.56;98055.73;1629097;86;24827;-84
2021/10/06 03:31:44;;;;;;;;;;;;;;;17.97;49.65;98052.09;1628139;86;20227;-88
2021/10/06 03:34:11;;;;;;;;;;;;;;;17.94;49.73;98055.92;1629411;87;26254;-88
2021/10/06 03:36:37;;;;;;;;;;;;;;;17.92;49.90;98051.27;1629075;88;24565;-82
2021/10/06 03:39:03;;;;;;;;;;;;;;;17.87;50.00;98048.77;1606401;87;20571;-84
2021/10/06 03:41:29;;;;;;;;;;;;;;;17.83;50.07;98043.48;1629015;86;24833;-84
2021/10/06 03:43:55;;;;;;;;;;;;;;;17.76;50.17;98049.08;1629844;86;20267;-84
2021/10/06 03:46:21;;;;;;;;;;;;;;;17.71;50.34;98049.56;1630413;86;26261;-88
2021/10/06 03:48:47;;;;;;;;;;;;;;;17.66;50.54;98045.25;1630011;86;20803;-84
2021/10/06 03:51:18;;;;;;;;;;;;;;;17.58;50.79;98052.63;1631081;86;20197;-88
2021/10/06 03:53:41;;;;;;;;;;;;;;;17.52;51.02;98064.34;1629924;86;24763;-88
2021/10/06 03:56:07;;;;;;;;;;;;;;;17.44;51.28;98061.67;1630412;86;20344;-87
2021/10/06 03:58:34;;;;;;;;;;;;;;;17.32;51.51;98058.97;1630522;86;21139;-88
2021/10/06 04:01:00;;;;;;;;;;;;;;;17.20;51.73;98052.30;1630652;86;24527;-88
2021/10/06 04:03:26;;;;;;;;;;;;;;;17.13;51.99;98054.73;1631192;86;20212;-86
2021/10/06 04:05:52;;;;;;;;;;;;;;;17.07;52.24;98052.22;1630330;86;20232;-83
2021/10/06 04:08:19;;;;;;;;;;;;;;;17.01;52.50;98049.41;1629679;86;22087;-84
2021/10/06 04:10:45;;;;;;;;;;;;;;;16.98;52.75;98054.98;1631157;86;26966;-88
2021/10/06 04:13:11;;;;;;;;;;;;;;;16.95;52.94;98053.50;1629560;86;24514;-88
2021/10/06 04:15:38;;;;;;;;;;;;;;;16.92;53.16;98053.80;1629901;86;20283;-88
2021/10/06 04:18:06;;;;;;;;;;;;;;;16.90;53.36;98047.86;1630343;86;24772;-88
2021/10/06 04:20:32;;;;;;;;;;;;;;;16.90;53.56;98053.63;1630186;86;22081;-87
2021/10/06 04:22:58;;;;;;;;;;;;;;;16.89;53.76;98051.97;1630252;86;26046;-84
2021/10/06 04:25:24;;;;;;;;;;;;;;;16.86;54.00;98057.06;1629610;86;20275;-83
2021/10/06 04:27:50;;;;;;;;;;;;;;;16.87;54.17;98066.66;1629759;86;20347;-83
2021/10/06 04:30:16;;;;;;;;;;;;;;;16.84;54.37;98072.27;1629696;86;20197;-83
2021/10/06 04:32:45;;;;;;;;;;;;;;;16.86;54.54;98075.56;1630438;86;22059;-86
2021/10/06 04:35:11;;;;;;;;;;;;;;;16.85;54.74;98077.89;1630513;86;21061;-86
2021/10/06 04:37:37;;;;;;;;;;;;;;;16.86;54.90;98067.63;1630247;86;20243;-82
2021/10/06 04:40:05;;;;;;;;;;;;;;;16.86;55.04;98070.27;1630492;86;20217;-86
2021/10/06 04:42:31;;;;;;;;;;;;;;;16.87;55.18;98068.47;1630542;86;25764;-83
2021/10/06 04:44:57;;;;;;;;;;;;;;;16.85;55.35;98084.98;1629493;86;20330;-84
2021/10/06 04:47:23;;;;;;;;;;;;;;;16.81;55.48;98084.45;1603419;88;21706;-83
2021/10/06 04:49:49;;;;;;;;;;;;;;;16.80;55.63;98090.71;1665533;84;20224;-83
2021/10/06 04:52:15;;;;;;;;;;;;;;;16.80;55.75;98086.75;1629783;86;20271;-83
2021/10/06 04:54:41;;;;;;;;;;;;;;;16.82;55.90;98086.60;1603124;88;20228;-83
2021/10/06 04:57:07;;;;;;;;;;;;;;;16.83;56.07;98087.78;1630058;86;20276;-86
2021/10/06 04:59:33;;;;;;;;;;;;;;;16.81;56.14;98083.61;1628927;86;21065;-88
2021/10/06 05:01:59;;;;;;;;;;;;;;;16.80;56.27;98088.07;1630467;86;20353;-83
2021/10/06 05:04:26;;;;;;;;;;;;;;;16.80;56.40;98094.67;1630437;86;20177;-88
2021/10/06 05:06:52;;;;;;;;;;;;;;;16.84;56.50;98106.62;1629696;86;24953;-88
2021/10/06 05:09:18;;;;;;;;;;;;;;;16.84;56.56;98103.15;1629569;86;20224;-88
2021/10/06 05:11:44;;;;;;;;;;;;;;;16.83;56.63;98114.70;1629631;86;21100;-84
2021/10/06 05:14:10;;;;;;;;;;;;;;;16.84;56.69;98109.75;1660260;84;24569;-88
2021/10/06 05:16:36;;;;;;;;;;;;;;;16.87;56.75;98108.94;1630786;86;20286;-83
2021/10/06 05:19:02;;;;;;;;;;;;;;;16.85;56.81;98119.35;1630054;86;24752;-83
2021/10/06 05:21:29;;;;;;;;;;;;;;;16.84;56.86;98123.80;1630641;86;20232;-83
2021/10/06 05:23:54;;;;;;;;;;;;;;;16.83;56.91;98124.78;1630071;86;27018;-87
2021/10/06 05:26:21;;;;;;;;;;;;;;;16.86;56.95;98127.10;1630148;86;24433;-88
2021/10/06 05:28:51;;;;;;;;;;;;;;;16.92;57.01;98132.27;1630283;86;20185;-82
2021/10/06 05:31:15;;;;;;;;;;;;;;;16.95;57.08;98135.45;1631486;86;25491;-82
2021/10/06 05:33:41;;;;;;;;;;;;;;;16.94;57.13;98134.27;1630356;86;20315;-86
2021/10/06 05:36:07;;;;;;;;;;;;;;;16.97;57.17;98143.20;1630316;86;21037;-83
2021/10/06 05:38:34;;;;;;;;;;;;;;;17.02;57.19;98146.25;1629821;86;24432;-88
2021/10/06 05:41:00;;;;;;;;;;;;;;;17.05;57.27;98150.72;1630158;86;20355;-87
2021/10/06 05:43:26;;;;;;;;;;;;;;;17.04;57.26;98150.38;1629455;86;20259;-85
2021/10/06 05:45:52;;;;;;;;;;;;;;;17.02;57.27;98148.89;1629606;86;20783;-82
2021/10/06 05:48:18;;;;;;;;;;;;;;;17.02;57.33;98156.82;1628514;86;25962;-83
2021/10/06 05:50:44;;;;;;;;;;;;;;;17.05;57.36;98152.05;1628285;86;20315;-83
2021/10/06 05:53:10;;;;;;;;;;;;;;;17.04;57.40;98156.16;1611288;87;20279;-88
2021/10/06 05:55:36;;;;;;;;;;;;;;;17.05;57.46;98165.27;1628648;86;20440;-84
2021/10/06 05:58:02;;;;;;;;;;;;;;;17.03;57.45;98167.22;1629073;87;21943;-83
2021/10/06 06:00:28;;;;;;;;;;;;;;;17.00;57.46;98171.51;1629274;86;21045;-88
2021/10/06 06:02:54;;;;;;;;;;;;;;;17.00;57.45;98168.86;1629131;86;20669;-88
2021/10/06 06:05:20;;;;;;;;;;;;;;;17.00;57.44;98175.96;1629379;86;20259;-88
2021/10/06 06:07:46;;;;;;;;;;;;;;;16.98;57.42;98177.42;1629314;86;20362;-82
2021/10/06 06:10:12;;;;;;;;;;;;;;;16.96;57.43;98172.80;1629711;86;22088;-83
2021/10/06 06:12:39;;;;;;;;;;;;;;;16.96;57.44;98171.97;1629065;86;26803;-83
2021/10/06 06:15:06;;;;;;;;;;;;;;;16.93;57.46;98175.73;1628779;86;25158;-86
2021/10/06 06:17:37;;;;;;;;;;;;;;;16.92;57.47;98180.68;1628183;86;20336;-86
2021/10/06 06:20:00;;;;;;;;;;;;;;;16.92;57.51;98180.68;1628185;86;25439;-83
2021/10/06 06:22:26;;;;;;;;;;;;;;;16.91;57.55;98188.78;1628414;86;21935;-83
2021/10/06 06:24:52;;;;;;;;;;;;;;;16.89;57.65;98183.64;1628933;86;21118;-83
2021/10/06 06:27:18;;;;;;;;;;;;;;;16.85;57.71;98190.23;1629739;86;20259;-83
2021/10/06 06:29:44;;;;;;;;;;;;;;;16.85;57.83;98192.03;1628961;86;20903;-84
2021/10/06 06:32:10;;;;;;;;;;;;;;;16.79;57.98;98193.96;1628959;86;20541;-86
2021/10/06 06:34:36;;;;;;;;;;;;;;;16.73;58.14;98205.48;1629301;86;20204;-87
2021/10/06 06:37:02;;;;;;;;;;;;;;;16.69;58.29;98205.94;1628392;86;21104;-86
2021/10/06 06:39:28;;;;;;;;;;;;;;;16.63;58.46;98206.54;1628909;86;24751;-86
2021/10/06 06:41:54;;;;;;;;;;;;;;;16.64;58.59;98214.29;1629157;86;20307;-83
2021/10/06 06:44:21;;;;;;;;;;;;;;;16.62;58.67;98215.44;1631059;86;24880;-88
2021/10/06 06:46:47;;;;;;;;;;;;;;;16.63;58.77;98207.86;1630221;86;22673;-88
2021/10/06 06:49:13;;;;;;;;;;;;;;;16.56;58.84;98208.08;1630024;86;21545;-88
2021/10/06 06:51:39;;;;;;;;;;;;;;;16.53;58.96;98215.00;1631431;86;20266;-87
2021/10/06 06:54:05;;;;;;;;;;;;;;;16.44;59.07;98224.63;1630828;86;20247;-83
2021/10/06 06:56:32;;;;;;;;;;;;;;;16.45;59.15;98216.22;1630456;86;20359;-83
2021/10/06 06:58:58;;;;;;;;;;;;;;;16.44;59.29;98220.66;1631168;86;22752;-88
2021/10/06 07:01:24;;;;;;;;;;;;;;;16.40;59.42;98215.84;1631499;86;21049;-88
2021/10/06 07:03:50;;;;;;;;;;;;;;;16.47;59.51;98219.55;1630710;86;24441;-83
2021/10/06 07:06:19;;;;;;;;;;;;;;;16.48;59.64;98221.19;1630614;86;20338;-88
2021/10/06 07:08:48;;;;;;;;;;;;;;;16.48;59.69;98226.47;1631554;86;24828;-84
2021/10/06 07:11:13;;;;;;;;;;;;;;;16.48;59.76;98227.30;1630388;86;22022;-86
2021/10/06 07:13:39;;;;;;;;;;;;;;;16.44;59.96;98229.91;1631040;86;21076;-88
2021/10/06 07:16:05;;;;;;;;;;;;;;;16.32;60.10;98235.05;1629941;86;20255;-86
2021/10/06 07:18:31;;;;;;;;;;;;;;;16.22;60.29;98231.16;1631160;86;20286;-82
2021/10/06 07:20:57;;;;;;;;;;;;;;;16.12;60.57;98234.34;1629992;86;25116;-82
2021/10/06 07:23:23;;;;;;;;;;;;;;;16.05;60.79;98239.02;1630915;86;22049;-83
2021/10/06 07:25:49;;;;;;;;;;;;;;;15.99;60.98;98240.42;1630701;86;20937;-83
2021/10/06 07:28:15;;;;;;;;;;;;;;;15.91;61.16;98233.74;1629987;87;20361;-88
2021/10/06 07:30:41;;;;;;;;;;;;;;;15.85;61.40;98234.32;1631175;86;20224;-83
2021/10/06 07:33:07;;;;;;;;;;;;;;;15.80;61.66;98240.52;1630436;86;20766;-88
2021/10/06 07:35:33;;;;;;;;;;;;;;;15.76;61.88;98243.95;1630158;87;20255;-83
2021/10/06 07:37:59;;;;;;;;;;;;;;;15.77;62.11;98250.03;1630317;86;20989;-83
2021/10/06 07:40:25;;;;;;;;;;;;;;;15.75;62.31;98246.72;1629585;86;20287;-84
2021/10/06 07:42:51;;;;;;;;;;;;;;;15.70;62.54;98247.64;1629239;86;20275;-84
2021/10/06 07:45:17;;;;;;;;;;;;;;;15.67;62.72;98254.51;1630066;86;20356;-88
2021/10/06 07:47:43;;;;;;;;;;;;;;;15.69;62.98;98253.41;1630631;86;20251;-85
2021/10/06 07:50:10;;;;;;;;;;;;;;;15.70;63.18;98256.39;1611222;87;41118;-88
2021/10/06 07:52:36;;;;;;;;;;;;;;;15.75;63.43;98259.43;1630388;86;24503;-87
2021/10/06 07:55:05;;;;;;;;;;;;;;;15.77;63.57;98261.42;1629933;86;20235;-87
2021/10/06 07:57:30;;;;;;;;;;;;;;;15.84;63.74;98263.00;1631526;86;24838;-88
2021/10/06 07:59:56;;;;;;;;;;;;;;;15.88;63.91;98263.05;1630715;86;22047;-83
2021/10/06 08:02:23;;;;;;;;;;;;;;;15.88;64.03;98265.69;1630453;86;21053;-85
2021/10/06 08:04:49;;;;;;;;;;;;;;;15.87;64.16;98269.33;1630350;86;24522;-84
2021/10/06 08:07:15;;;;;;;;;;;;;;;15.84;64.31;98269.11;1630015;86;20232;-83
2021/10/06 08:09:41;;;;;;;;;;;;;;;15.83;64.40;98271.40;1631080;86;20635;-90
2021/10/06 08:12:07;;;;;;;;;;;;;;;15.83;64.57;98276.67;1630606;86;20735;-88
2021/10/06 08:14:33;;;;;;;;;;;;;;;15.81;64.72;98277.33;1630537;86;26092;-88
2021/10/06 08:16:59;;;;;;;;;;;;;;;15.74;64.83;98288.59;1630656;86;24450;-88
2021/10/06 08:19:25;;;;;;;;;;;;;;;15.69;64.98;98284.23;1630308;86;20239;-88
2021/10/06 08:21:52;;;;;;;;;;;;;;;15.67;65.11;98292.77;1629016;86;24852;-84
2021/10/06 08:24:17;;;;;;;;;;;;;;;15.65;65.26;98294.25;1631118;86;20311;-88
2021/10/06 08:26:43;;;;;;;;;;;;;;;15.63;65.43;98302.78;1630626;86;21089;-88
2021/10/06 08:29:09;;;;;;;;;;;;;;;15.60;65.58;98303.56;1629723;86;20271;-88
2021/10/06 08:31:35;;;;;;;;;;;;;;;15.55;65.74;98306.59;1630251;86;20351;-85
2021/10/06 08:34:01;;;;;;;;;;;;;;;15.50;65.87;98306.98;1630657;86;24759;-88
2021/10/06 08:36:27;;;;;;;;;;;;;;;15.47;66.03;98302.50;1630129;86;20236;-88
2021/10/06 08:38:53;;;;;;;;;;;;;;;15.43;66.20;98311.19;1630413;86;21034;-89
2021/10/06 08:41:20;;;;;;;;;;;;;;;15.41;66.40;98313.60;1630945;86;20273;-88
2021/10/06 08:43:47;;;;;;;;;;;;;;;15.39;66.59;98312.41;1630288;87;20342;-86
2021/10/06 08:46:13;;;;;;;;;;;;;;;15.34;66.77;98314.64;1629619;86;25659;-86
2021/10/06 08:48:39;;;;;;;;;;;;;;;15.35;66.96;98312.36;1630545;86;20838;-86
2021/10/06 08:51:06;;;;;;;;;;;;;;;15.31;67.14;98309.66;1629748;87;20929;-88
2021/10/06 08:53:32;;;;;;;;;;;;;;;15.31;67.33;98312.30;1631051;86;24440;-87
2021/10/06 08:55:58;;;;;;;;;;;;;;;15.35;67.48;98314.16;1630247;86;20281;-86
2021/10/06 08:58:24;;;;;;;;;;;;;;;15.37;67.67;98320.97;1629639;86;20247;-89
2021/10/06 09:00:54;;;;;;;;;;;;;;;15.40;67.85;98325.12;1630738;86;20239;-90
2021/10/06 09:03:25;;;;;;;;;;;;;;;15.44;68.02;98330.45;1630941;86;26009;-86
2021/10/06 09:06:01;;;;;;;;;;;;;;;15.45;68.19;98326.36;1629788;86;24498;-89
2021/10/06 09:08:27;;;;;;;;;;;;;;;15.50;68.38;98338.64;1629581;86;20244;-89
2021/10/06 09:10:53;;;;;;;;;;;;;;;15.53;68.56;98338.06;1629954;86;20769;-84
2021/10/06 09:13:21;;;;;;;;;;;;;;;15.52;68.71;98342.50;1630323;86;21885;-90
2021/10/06 09:15:50;;;;;;;;;;;;;;;15.51;68.87;98347.39;1630222;86;25960;-89
2021/10/06 09:18:18;;;;;;;;;;;;;;;15.44;69.00;98347.11;1630027;86;24458;-89
2021/10/06 09:20:44;;;;;;;;;;;;;;;15.44;69.11;98352.38;1630979;86;20212;-90
2021/10/06 09:23:11;;;;;;;;;;;;;;;15.45;69.21;98359.33;1630238;86;25664;-90
2021/10/06 09:25:47;;;;;;;;;;;;;;;15.44;69.31;98361.61;1630149;86;22592;-88
2021/10/06 09:28:18;;;;;;;;;;;;;;;15.40;69.39;98357.59;1630441;86;25997;-89
2021/10/06 09:30:44;;;;;;;;;;;;;;;15.40;69.50;98359.40;1630480;86;25295;-87
2021/10/06 09:33:10;;;;;;;;;;;;;;;15.32;69.61;98355.32;1630244;86;20279;-87
2021/10/06 09:35:35;;;;;;;;;;;;;;;15.28;69.66;98357.38;1663516;84;20248;-86
2021/10/06 09:38:01;;;;;;;;;;;;;;;15.30;69.76;98362.52;1631064;87;20283;-84
2021/10/06 09:40:29;;;;;;;;;;;;;;;15.30;69.87;98361.20;1630936;86;26779;-90
2021/10/06 09:42:59;;;;;;;;;;;;;;;15.30;69.97;98363.84;1630759;86;25171;-84
2021/10/06 09:45:27;;;;;;;;;;;;;;;15.28;70.05;98362.66;1631364;86;20236;-87
2021/10/06 09:48:04;;;;;;;;;;;;;;;15.25;70.12;98364.75;1629797;86;24376;-86
2021/10/06 09:50:31;;;;;;;;;;;;;;;15.20;70.23;98361.21;1631164;86;22011;-84
2021/10/06 09:52:59;;;;;;;;;;;;;;;15.18;70.38;98363.63;1629689;86;25989;-85
2021/10/06 09:55:27;;;;;;;;;;;;;;;15.16;70.49;98362.47;1631025;86;24415;-89
2021/10/06 09:57:54;;;;;;;;;;;;;;;15.17;70.63;98357.52;1629577;86;20229;-89
2021/10/06 10:00:21;;;;;;;;;;;;;;;15.16;70.77;98363.78;1630170;86;24255;-89
2021/10/06 10:02:47;;;;;;;;;;;;;;;15.17;70.94;98368.54;1630443;86;22715;-89
2021/10/06 10:05:14;;;;;;;;;;;;;;;15.20;71.05;98361.21;1663995;84;25442;-89
2021/10/06 10:07:41;;;;;;;;;;;;;;;15.23;71.19;98357.45;1631168;86;25224;-86
2021/10/06 10:10:08;;;;;;;;;;;;;;;15.24;71.31;98363.08;1630824;86;20253;-88
2021/10/06 10:12:36;;;;;;;;;;;;;;;15.25;71.43;98362.11;1668303;84;21216;-84
2021/10/06 10:15:03;;;;;;;;;;;;;;;15.18;71.50;98367.09;1630832;87;21990;-84
2021/10/06 10:17:29;;;;;;;;;;;;;;;15.11;71.58;98365.97;1631266;86;26013;-86
2021/10/06 10:19:57;;;;;;;;;;;;;;;15.07;71.65;98363.27;1629419;86;24569;-85
2021/10/06 10:22:28;;;;;;;;;;;;;;;15.08;71.76;98367.09;1630567;86;20392;-83
2021/10/06 10:24:54;;;;;;;;;;;;;;;15.05;71.91;98366.55;1629976;86;25806;-88
2021/10/06 10:27:22;;;;;;;;;;;;;;;15.06;72.05;98376.09;1630187;86;21980;-88
2021/10/06 10:29:54;;;;;;;;;;;;;;;15.07;72.16;98373.81;1631181;86;26711;-88
2021/10/06 10:32:21;;;;;;;;;;;;;;;15.06;72.29;98378.24;1630773;86;24522;-86
2021/10/06 10:35:01;;;;;;;;;;;;;;;15.05;72.40;98368.66;1629852;86;20220;-84
2021/10/06 10:37:47;;;;;;;;;;;;;;;15.07;72.48;98375.13;1630046;86;24721;-88
2021/10/06 10:40:33;;;;;;;;;;;;;;;15.13;72.61;98369.31;1631013;86;22066;-90
2021/10/06 10:43:00;;;;;;;;;;;;;;;15.16;72.74;98373.49;1633442;86;25943;-88
2021/10/06 10:45:39;;;;;;;;;;;;;;;15.19;72.84;98375.84;1639248;86;25184;-83
2021/10/06 10:48:04;;;;;;;;;;;;;;;15.19;72.94;98378.47;1637923;86;20232;-88
2021/10/06 10:50:39;;;;;;;;;;;;;;;15.19;73.04;98371.88;1619617;87;20935;-84
2021/10/06 10:53:06;;;;;;;;;;;;;;;15.19;73.15;98377.99;1640140;86;21942;-84
2021/10/06 10:55:46;;;;;;;;;;;;;;;15.23;73.27;98371.47;1639397;86;26036;-84
2021/10/06 10:58:29;;;;;;;;;;;;;;;15.22;73.36;98375.58;1639269;86;23795;-88
2021/10/06 11:00:56;;;;;;;;;;;;;;;15.29;73.46;98377.52;1638992;86;20235;-86
2021/10/06 11:03:22;;;;;;;;;;;;;;;15.36;73.60;98372.04;1639307;86;24771;-86
2021/10/06 11:05:49;;;;;;;;;;;;;;;15.41;73.72;98370.30;1638880;85;22094;-88
2021/10/06 11:08:33;;;;;;;;;;;;;;;15.47;73.83;98378.50;1639020;86;25392;-83
2021/10/06 11:11:09;;;;;;;;;;;;;;;15.54;73.93;98377.50;1638838;86;24533;-84
2021/10/06 11:13:43;;;;;;;;;;;;;;;15.53;73.98;98375.82;1638661;86;20215;-90
2021/10/06 11:16:10;;;;;;;;;;;;;;;15.53;74.03;98369.71;1638872;86;24820;-90
2021/10/06 11:18:38;;;;;;;;;;;;;;;15.55;74.11;98383.61;1638811;86;22125;-90
2021/10/06 11:21:05;;;;;;;;;;;;;;;15.58;74.18;98375.40;1638184;86;25552;-90
2021/10/06 11:23:34;;;;;;;;;;;;;;;15.59;74.25;98383.66;1638759;86;24594;-89
2021/10/06 11:26:05;;;;;;;;;;;;;;;15.60;74.34;98381.38;1638824;86;20185;-89
2021/10/06 11:28:32;;;;;;;;;;;;;;;15.62;74.44;98380.25;1637653;86;25506;-90
2021/10/06 11:30:59;;;;;;;;;;;;;;;15.67;74.50;98378.02;1638553;86;22066;-90
2021/10/06 11:33:27;;;;;;;;;;;;;;;15.74;74.58;98386.22;1638813;86;26630;-90
2021/10/06 11:35:54;;;;;;;;;;;;;;;15.78;74.63;98388.42;1620625;87;24537;-90
2021/10/06 11:38:20;;;;;;;;;;;;;;;15.80;74.69;98389.61;1621264;87;20156;-90
2021/10/06 11:40:48;;;;;;;;;;;;;;;15.75;74.74;98383.93;1616718;87;24979;-88
2021/10/06 11:43:13;;;;;;;;;;;;;;;15.74;74.75;98387.53;1620083;87;20886;-86
2021/10/06 11:45:42;;;;;;;;;;;;;;;15.71;74.78;98387.83;1621618;86;26869;-90
2021/10/06 11:48:10;;;;;;;;;;;;;;;15.69;74.82;98389.77;1614484;87;24515;-90
2021/10/06 11:50:37;;;;;;;;;;;;;;;15.71;74.88;98385.19;1630804;87;20229;-90
2021/10/06 11:53:03;;;;;;;;;;;;;;;15.68;74.90;98394.69;1617362;87;24749;-86
2021/10/06 11:55:29;;;;;;;;;;;;;;;15.63;74.96;98387.68;1625942;87;20255;-89
2021/10/06 11:57:55;;;;;;;;;;;;;;;15.62;75.00;98392.13;1618754;86;21863;-89
2021/10/06 12:00:22;;;;;;;;;;;;;;;15.60;75.02;98397.20;1618913;87;20294;-88
2021/10/06 12:02:50;;;;;;;;;;;;;;;15.60;75.10;98394.56;1625787;87;20630;-84
2021/10/06 12:05:16;;;;;;;;;;;;;;;15.61;75.18;98399.68;1619927;87;24877;-86
2021/10/06 12:07:42;;;;;;;;;;;;;;;15.57;75.23;98398.30;1625862;87;20263;-84
2021/10/06 12:10:12;;;;;;;;;;;;;;;15.56;75.27;98397.11;1593153;87;25960;-86
2021/10/06 12:12:39;;;;;;;;;;;;;;;15.58;75.35;98399.14;1593247;89;24485;-87
2021/10/06 12:15:07;;;;;;;;;;;;;;;15.59;75.41;98402.13;1592269;88;20160;-83
2021/10/06 12:17:37;;;;;;;;;;;;;;;15.60;75.48;98409.88;1637363;86;24768;-90
2021/10/06 12:20:07;;;;;;;;;;;;;;;15.62;75.56;98406.63;1636506;86;21963;-90
2021/10/06 12:22:35;;;;;;;;;;;;;;;15.64;75.59;98403.38;1636572;86;26746;-90
2021/10/06 12:25:03;;;;;;;;;;;;;;;15.67;75.69;98407.05;1636447;86;25247;-89
2021/10/06 12:27:30;;;;;;;;;;;;;;;15.68;75.74;98414.47;1636509;86;20212;-88
2021/10/06 12:30:07;;;;;;;;;;;;;;;15.69;75.79;98415.66;1636489;86;25020;-89
2021/10/06 12:32:33;;;;;;;;;;;;;;;15.71;75.85;98420.30;1636680;86;22079;-89
2021/10/06 12:35:04;;;;;;;;;;;;;;;15.70;75.92;98414.70;1636443;86;26984;-90
2021/10/06 12:37:30;;;;;;;;;;;;;;;15.70;75.95;98418.66;1622681;86;24530;-92
2021/10/06 12:40:02;;;;;;;;;;;;;;;15.72;76.00;98418.01;1614976;87;20231;-89
2021/10/06 12:42:28;;;;;;;;;;;;;;;15.72;76.05;98418.49;1622996;87;24833;-85
2021/10/06 12:44:56;;;;;;;;;;;;;;;15.72;76.12;98411.89;1619019;87;20234;-89
2021/10/06 12:47:23;;;;;;;;;;;;;;;15.64;76.18;98416.57;1642004;86;26673;-91